Time;durP1;ratioP1;P1;durP2;ratioP2;P2;SDS_P1;SDS_P2;PMS_P1;PMS_P2;Temp;Humidity;BMP_temperature;BMP_pressure;BME280_temperature;BME280_humidity;BME280_pressure;Samples;Min_cycle;Max_cycle;Signal;HPM_P1;HPM_P2
2022/07/11 00:02:06;;;;;;;8.77;7.53;;;;;;;20.01;100.00;100107.16;4951259;28;20034;-81
2022/07/11 00:04:33;;;;;;;9.13;7.35;;;;;;;20.25;100.00;100153.28;4936738;29;20028;-81
2022/07/11 00:06:59;;;;;;;12.02;8.05;;;;;;;19.89;100.00;100105.53;4936701;29;20031;-81
2022/07/11 00:09:25;;;;;;;8.50;7.57;;;;;;;20.30;100.00;100145.38;4919432;29;20038;-81
2022/07/11 00:11:51;;;;;;;8.95;7.45;;;;;;;20.26;100.00;100151.53;4951201;28;20024;-83
2022/07/11 00:14:17;;;;;;;8.60;7.75;;;;;;;20.24;100.00;100143.69;4919164;29;20087;-82
2022/07/11 00:16:42;;;;;;;9.60;7.53;;;;;;;20.42;100.00;100166.25;4950875;29;20038;-81
2022/07/11 00:19:08;;;;;;;8.63;7.72;;;;;;;20.37;100.00;100149.69;4936557;29;20035;-80
2022/07/11 00:21:35;;;;;;;8.57;7.70;;;;;;;20.35;100.00;100135.75;4936484;29;20486;-81
2022/07/11 00:24:04;;;;;;;8.23;7.38;;;;;;;20.63;100.00;100172.19;4936553;29;20042;-82
2022/07/11 00:26:30;;;;;;;11.93;7.60;;;;;;;20.23;100.00;100104.38;4934856;29;20035;-80
2022/07/11 00:28:56;;;;;;;9.57;8.07;;;;;;;20.44;100.00;100166.25;4918711;29;20043;-81
2022/07/11 00:31:21;;;;;;;8.82;7.95;;;;;;;20.40;100.00;100144.44;4936211;29;20030;-83
2022/07/11 00:33:47;;;;;;;9.52;8.02;;;;;;;20.45;100.00;100160.09;4936025;29;20039;-82
2022/07/11 00:36:12;;;;;;;9.02;8.13;;;;;;;20.53;100.00;100174.88;4935953;29;20038;-82
2022/07/11 00:38:38;;;;;;;13.35;9.43;;;;;;;20.50;100.00;100171.44;4936138;29;20091;-83
2022/07/11 00:41:04;;;;;;;9.68;7.93;;;;;;;20.32;100.00;100170.69;4950421;28;20035;-83
2022/07/11 00:43:36;;;;;;;10.32;9.23;;;;;;;19.80;100.00;100116.00;4934753;29;20064;-82
2022/07/11 00:46:02;;;;;;;9.20;8.00;;;;;;;20.07;100.00;100175.25;4935624;29;20052;-82
2022/07/11 00:48:28;;;;;;;10.45;8.80;;;;;;;20.09;100.00;100173.50;4918939;29;20031;-81
2022/07/11 00:50:54;;;;;;;9.73;8.45;;;;;;;20.06;100.00;100149.91;4950622;28;20506;-82
2022/07/11 00:53:20;;;;;;;10.68;8.48;;;;;;;20.13;100.00;100154.25;4934664;29;20035;-82
2022/07/11 00:55:47;;;;;;;9.98;8.95;;;;;;;20.14;100.00;100142.88;4936501;29;20039;-81
2022/07/11 00:58:13;;;;;;;10.98;9.00;;;;;;;19.74;100.00;100111.72;4943918;29;20055;-82
2022/07/11 01:00:40;;;;;;;10.60;9.55;;;;;;;19.32;100.00;100056.09;4954669;29;20040;-82
2022/07/11 01:03:06;;;;;;;9.18;8.27;;;;;;;19.50;100.00;100083.91;4954452;29;20031;-81
2022/07/11 01:05:31;;;;;;;8.80;7.93;;;;;;;19.89;100.00;100147.44;4937629;29;20035;-82
2022/07/11 01:07:57;;;;;;;14.95;8.43;;;;;;;19.88;100.00;100145.69;4937730;29;20035;-81
2022/07/11 01:10:23;;;;;;;9.10;8.07;;;;;;;19.33;100.00;100082.25;4935048;29;20475;-82
2022/07/11 01:12:49;;;;;;;8.55;7.65;;;;;;;19.71;100.00;100166.72;4936161;29;20034;-81
2022/07/11 01:15:15;;;;;;;9.45;8.15;;;;;;;19.72;100.00;100160.59;4934073;29;20032;-81
2022/07/11 01:17:40;;;;;;;11.88;8.50;;;;;;;19.83;100.00;100164.06;4935308;29;20030;-81
2022/07/11 01:20:06;;;;;;;9.80;8.18;;;;;;;19.50;100.00;100094.38;4935261;29;20083;-83
2022/07/11 01:22:38;;;;;;;9.75;7.90;;;;;;;19.53;100.00;100160.69;4933703;29;20118;-83
2022/07/11 01:25:05;;;;;;;10.13;8.40;;;;;;;19.61;100.00;100183.34;4935214;29;20111;-82
2022/07/11 01:27:32;;;;;;;9.43;7.95;;;;;;;19.13;100.00;100159.97;4949578;29;20075;-81
2022/07/11 01:29:57;;;;;;;12.20;8.93;;;;;;;19.04;100.00;100171.34;4934808;29;20463;-83
2022/07/11 01:32:23;;;;;;;9.40;7.75;;;;;;;18.81;100.00;100185.31;4933652;29;20098;-82
2022/07/11 01:34:48;;;;;;;10.73;8.00;;;;;;;18.53;100.00;100145.25;4933678;29;20069;-83
2022/07/11 01:37:14;;;;;;;9.80;8.13;;;;;;;18.72;100.00;100178.34;4917756;29;20521;-83
2022/07/11 01:39:40;;;;;;;9.75;8.75;;;;;;;18.65;100.00;100178.38;4933570;29;20410;-82
2022/07/11 01:42:05;;;;;;;9.70;8.27;;;;;;;18.24;100.00;100125.22;4917386;29;20042;-81
2022/07/11 01:44:31;;;;;;;11.90;9.10;;;;;;;18.64;100.00;100181.84;4933369;29;20051;-81
2022/07/11 01:46:57;;;;;;;8.70;7.90;;;;;;;17.98;100.00;100114.78;4917877;29;20031;-81
2022/07/11 01:49:22;;;;;;;11.07;7.72;;;;;;;18.36;100.00;100190.56;4934981;29;20076;-81
2022/07/11 01:51:49;;;;;;;12.10;8.80;;;;;;;18.22;100.00;100189.69;4935025;29;20413;-81
2022/07/11 01:54:14;;;;;;;9.82;8.90;;;;;;;18.17;100.00;100192.31;4917872;29;20071;-82
2022/07/11 01:56:40;;;;;;;9.60;8.45;;;;;;;18.19;100.00;100181.84;4917608;29;20027;-82
2022/07/11 01:59:07;;;;;;;10.73;9.05;;;;;;;18.26;100.00;100183.59;4949405;29;20030;-85
2022/07/11 02:01:32;;;;;;;11.57;8.70;;;;;;;18.24;100.00;100181.00;4934824;29;20036;-81
2022/07/11 02:03:59;;;;;;;9.45;8.45;;;;;;;18.06;100.00;100174.00;4933297;29;20551;-82
2022/07/11 02:06:24;;;;;;;9.32;8.35;;;;;;;17.79;100.00;100151.28;4917663;29;20031;-82
2022/07/11 02:08:50;;;;;;;12.40;8.15;;;;;;;18.06;100.00;100188.81;4917584;29;20048;-82
2022/07/11 02:11:15;;;;;;;10.15;8.38;;;;;;;18.13;100.00;100192.28;4917582;29;20380;-82
2022/07/11 02:13:40;;;;;;;10.13;8.65;;;;;;;18.18;100.00;100187.94;4934474;29;20028;-83
2022/07/11 02:16:06;;;;;;;10.73;7.68;;;;;;;17.76;100.00;100110.38;4950973;29;20090;-82
2022/07/11 02:18:34;;;;;;;10.00;8.20;;;;;;;17.77;100.00;100138.22;4951114;28;20102;-83
2022/07/11 02:21:00;;;;;;;9.07;8.05;;;;;;;17.83;100.00;100155.66;4934732;29;20035;-83
2022/07/11 02:23:25;;;;;;;12.07;8.00;;;;;;;17.91;100.00;100200.91;4934604;29;20051;-82
2022/07/11 02:25:51;;;;;;;9.23;7.45;;;;;;;17.98;100.00;100196.63;4934947;29;20048;-83
2022/07/11 02:28:17;;;;;;;7.90;7.05;;;;;;;17.74;100.00;100195.63;4966972;28;20035;-82
2022/07/11 02:30:45;;;;;;;11.63;7.32;;;;;;;17.58;100.00;100206.91;4934593;29;20047;-82
2022/07/11 02:33:15;;;;;;;9.68;7.38;;;;;;;17.41;100.00;100205.09;4950939;29;20031;-82
2022/07/11 02:35:41;;;;;;;;;;;;;;;17.56;100.00;100211.25;4951621;29;20047;-82
2022/07/11 02:38:06;;;;;;;9.35;6.55;;;;;;;17.59;100.00;100200.81;4966930;28;20005;-82
2022/07/11 02:40:32;;;;;;;9.20;7.43;;;;;;;17.16;100.00;100146.72;4966862;28;20126;-82
2022/07/11 02:42:57;;;;;;;8.85;6.93;;;;;;;17.69;100.00;100212.16;4934888;29;20035;-83
2022/07/11 02:45:23;;;;;;;8.40;7.28;;;;;;;17.65;100.00;100174.72;4950760;29;20490;-82
2022/07/11 02:47:48;;;;;;;12.48;7.57;;;;;;;17.88;100.00;100205.25;4933185;28;20131;-82
2022/07/11 02:50:14;;;;;;;8.50;7.03;;;;;;;18.01;100.00;100204.47;4913572;29;20036;-82
2022/07/11 02:52:41;;;;;;;11.27;7.90;;;;;;;18.01;100.00;100188.78;4929453;28;20448;-82
2022/07/11 02:55:09;;;;;;;10.23;7.50;;;;;;;18.20;100.00;100202.75;4913672;29;20036;-83
2022/07/11 02:57:35;;;;;;;12.85;8.00;;;;;;;18.16;100.00;100187.06;4913780;29;20096;-82
2022/07/11 03:00:05;;;;;;;8.50;6.97;;;;;;;18.01;100.00;100229.72;4913685;29;20475;-82
2022/07/11 03:02:31;;;;;;;;;;;;;;;17.83;100.00;100227.88;4915770;29;20032;-82
2022/07/11 03:04:57;;;;;;;8.55;6.82;;;;;;;17.71;100.00;100223.50;4913815;29;19921;-83
2022/07/11 03:07:25;;;;;;;9.13;6.72;;;;;;;17.76;100.00;100208.72;4913525;29;20040;-82
2022/07/11 03:09:50;;;;;;;8.43;7.63;;;;;;;17.76;100.00;100206.09;4914832;29;20063;-84
2022/07/11 03:12:16;;;;;;;9.43;6.82;;;;;;;17.53;100.00;100159.03;4929533;28;20068;-81
2022/07/11 03:14:41;;;;;;;12.68;7.25;;;;;;;17.89;100.00;100222.69;4915083;29;20032;-83
2022/07/11 03:17:07;;;;;;;10.27;6.78;;;;;;;17.99;100.00;100236.66;4929401;29;20471;-82
2022/07/11 03:19:32;;;;;;;9.63;6.75;;;;;;;18.02;100.00;100226.22;4915019;29;20064;-82
2022/07/11 03:21:57;;;;;;;10.25;6.40;;;;;;;18.23;100.00;100235.84;4914924;29;20480;-81
2022/07/11 03:24:23;;;;;;;9.82;6.85;;;;;;;18.36;99.88;100241.97;4915030;29;20032;-82
2022/07/11 03:26:49;;;;;;;9.18;7.10;;;;;;;18.28;98.78;100223.69;4929059;29;20496;-83
2022/07/11 03:29:14;;;;;;;9.80;6.40;;;;;;;18.33;98.54;100232.38;4913313;29;20043;-82
2022/07/11 03:31:39;;;;;;;9.32;6.45;;;;;;;17.75;98.46;100167.81;4929467;29;20040;-83
2022/07/11 03:34:05;;;;;;;7.40;6.03;;;;;;;18.10;97.92;100235.81;4915885;29;20036;-89
2022/07/11 03:36:30;;;;;;;8.73;6.28;;;;;;;18.05;97.92;100260.19;4932919;29;20059;-81
2022/07/11 03:38:56;;;;;;;9.02;6.25;;;;;;;17.83;99.03;100249.66;4917219;29;20115;-82
2022/07/11 03:41:21;;;;;;;8.75;6.95;;;;;;;17.19;100.00;100183.25;4932907;29;20492;-83
2022/07/11 03:43:46;;;;;;;7.45;6.75;;;;;;;17.12;100.00;100236.22;4932520;29;20518;-83
2022/07/11 03:46:12;;;;;;;12.13;7.38;;;;;;;17.18;100.00;100264.09;4953814;28;20107;-81
2022/07/11 03:48:37;;;;;;;8.52;7.60;;;;;;;16.87;100.00;100238.63;4953976;29;20585;-82
2022/07/11 03:51:03;;;;;;;8.60;7.10;;;;;;;16.80;100.00;100216.88;4953959;29;20047;-83
2022/07/11 03:53:28;;;;;;;8.32;7.43;;;;;;;17.09;100.00;100244.06;4953694;29;20046;-81
2022/07/11 03:55:57;;;;;;;7.90;6.55;;;;;;;17.04;100.00;100249.22;4934297;29;20578;-82
2022/07/11 03:58:22;;;;;;;9.32;6.55;;;;;;;17.09;100.00;100252.75;4918378;29;20138;-83
2022/07/11 04:00:48;;;;;;;7.43;6.63;;;;;;;17.09;100.00;100264.91;4918279;29;20131;-82
2022/07/11 04:03:13;;;;;;;8.55;7.22;;;;;;;17.09;100.00;100260.56;4918365;29;20028;-82
2022/07/11 04:05:39;;;;;;;9.45;7.45;;;;;;;16.90;100.00;100222.16;4934215;29;20044;-82
2022/07/11 04:08:04;;;;;;;9.55;7.28;;;;;;;16.93;100.00;100230.03;4918278;29;20046;-81
2022/07/11 04:10:30;;;;;;;8.05;7.13;;;;;;;17.04;100.00;100230.13;4950110;29;20028;-82
2022/07/11 04:12:55;;;;;;;10.38;7.45;;;;;;;17.17;100.00;100246.72;4918232;29;20039;-83
2022/07/11 04:15:21;;;;;;;8.00;7.00;;;;;;;17.21;100.00;100285.88;4934336;29;20090;-82
2022/07/11 04:17:46;;;;;;;8.05;6.97;;;;;;;17.02;100.00;100245.72;4920179;29;20055;-81
2022/07/11 04:20:12;;;;;;;9.90;7.30;;;;;;;16.94;100.00;100223.97;4899441;29;20088;-81
2022/07/11 04:22:38;;;;;;;8.80;6.88;;;;;;;17.42;100.00;100292.97;4915181;29;20558;-82
2022/07/11 04:25:04;;;;;;;7.00;6.30;;;;;;;17.38;100.00;100292.94;4914602;29;20032;-82
2022/07/11 04:27:29;;;;;;;7.68;5.50;;;;;;;17.16;100.00;100286.69;4915336;29;20052;-80
2022/07/11 04:29:55;;;;;;;6.32;5.50;;;;;;;17.00;100.00;100276.16;4915042;29;20047;-80
2022/07/11 04:32:20;;;;;;;9.27;5.82;;;;;;;17.20;100.00;100278.91;4915435;29;20107;-84
2022/07/11 04:34:46;;;;;;;7.13;6.03;;;;;;;17.25;100.00;100285.03;4931981;29;20110;-82
2022/07/11 04:37:12;;;;;;;9.25;5.70;;;;;;;16.82;100.00;100214.28;4947773;28;20412;-81
2022/07/11 04:39:37;;;;;;;6.38;4.85;;;;;;;17.22;100.00;100295.44;4947983;29;20059;-81
2022/07/11 04:42:03;;;;;;;7.50;4.55;;;;;;;17.32;100.00;100305.94;4917011;29;20035;-81
2022/07/11 04:44:28;;;;;;;5.55;5.03;;;;;;;17.27;100.00;100298.97;4920240;29;20094;-81
2022/07/11 04:46:54;;;;;;;6.38;4.63;;;;;;;17.39;100.00;100310.34;4935979;29;20403;-81
2022/07/11 04:49:19;;;;;;;6.10;4.50;;;;;;;17.42;100.00;100290.34;4935968;29;20174;-81
2022/07/11 04:51:45;;;;;;;6.18;4.60;;;;;;;17.48;100.00;100292.09;4914142;29;20032;-81
2022/07/11 04:54:11;;;;;;;7.70;5.07;;;;;;;17.63;100.00;100296.53;4914188;29;20127;-81
2022/07/11 04:56:37;;;;;;;5.32;4.45;;;;;;;17.72;100.00;100314.00;4914040;29;20044;-80
2022/07/11 04:59:03;;;;;;;5.50;4.35;;;;;;;17.61;100.00;100288.72;4914238;29;20051;-81
2022/07/11 05:01:29;;;;;;;4.82;4.10;;;;;;;17.76;97.74;100300.97;4929699;29;20032;-81
2022/07/11 05:03:55;;;;;;;10.23;4.50;;;;;;;17.90;99.56;100303.63;4929467;29;20043;-81
2022/07/11 05:06:20;;;;;;;5.30;4.22;;;;;;;17.89;96.58;100303.63;4913713;29;20122;-81
2022/07/11 05:08:46;;;;;;;5.22;4.03;;;;;;;17.81;97.30;100285.31;4913882;29;20122;-81
2022/07/11 05:11:12;;;;;;;6.38;4.55;;;;;;;18.03;95.34;100303.72;4929362;29;20471;-81
2022/07/11 05:13:37;;;;;;;5.10;4.60;;;;;;;17.70;97.17;100248.72;4913718;29;20040;-81
2022/07/11 05:16:03;;;;;;;5.75;4.03;;;;;;;18.16;95.56;100320.31;4913805;29;20028;-81
2022/07/11 05:18:29;;;;;;;8.82;4.28;;;;;;;17.79;95.30;100238.31;4929401;29;20084;-81
2022/07/11 05:20:55;;;;;;;5.30;4.30;;;;;;;18.07;96.55;100279.38;4913521;29;20101;-81
2022/07/11 05:23:20;;;;;;;5.13;4.35;;;;;;;18.32;97.69;100295.09;4929480;29;20059;-81
2022/07/11 05:25:45;;;;;;;5.80;4.75;;;;;;;18.32;97.15;100275.06;4935222;29;20423;-81
2022/07/11 05:28:11;;;;;;;5.47;4.28;;;;;;;18.33;96.45;100282.03;4951547;29;20638;-80
2022/07/11 05:30:36;;;;;;;6.00;4.53;;;;;;;18.46;97.59;100297.75;4952154;28;20046;-81
2022/07/11 05:33:02;;;;;;;5.40;4.53;;;;;;;18.65;97.73;100320.41;4951662;29;20043;-81
2022/07/11 05:35:28;;;;;;;5.43;4.53;;;;;;;18.75;96.86;100318.69;4951498;28;20035;-81
2022/07/11 05:37:54;;;;;;;5.00;4.50;;;;;;;18.73;96.40;100299.53;4951492;29;20579;-80
2022/07/11 05:40:20;;;;;;;6.72;4.25;;;;;;;18.86;95.31;100335.25;4951527;29;20510;-81
2022/07/11 05:42:45;;;;;;;8.90;5.35;;;;;;;18.82;94.79;100302.13;4951465;28;20047;-78
2022/07/11 05:45:11;;;;;;;9.40;5.00;;;;;;;19.04;96.31;100320.47;4935224;29;20086;-80
2022/07/11 05:47:37;;;;;;;12.23;8.45;;;;;;;19.26;94.96;100328.31;4951856;28;20051;-80
2022/07/11 05:50:03;;;;;;;5.85;5.22;;;;;;;19.32;95.99;100323.94;4951972;28;20043;-80
2022/07/11 05:52:28;;;;;;;4.72;4.20;;;;;;;19.31;91.13;100313.47;4954094;29;20468;-80
2022/07/11 05:54:54;;;;;;;7.28;4.45;;;;;;;19.40;94.88;100321.31;4959813;29;20085;-82
2022/07/11 05:57:19;;;;;;;6.50;4.32;;;;;;;19.68;94.48;100329.97;4959798;28;20031;-80
2022/07/11 05:59:46;;;;;;;5.40;4.25;;;;;;;19.77;94.46;100347.41;4942856;29;20075;-81
2022/07/11 06:02:12;;;;;;;5.15;3.80;;;;;;;19.88;92.54;100339.56;4932528;29;20059;-80
2022/07/11 06:04:38;;;;;;;6.22;3.67;;;;;;;19.56;92.20;100303.81;4932341;29;20588;-78
2022/07/11 06:07:04;;;;;;;5.60;3.45;;;;;;;19.77;90.97;100342.16;4932698;29;20054;-80
2022/07/11 06:09:29;;;;;;;4.30;3.58;;;;;;;19.73;90.37;100337.81;4931801;29;20035;-80
2022/07/11 06:11:55;;;;;;;5.95;3.58;;;;;;;19.88;90.88;100348.28;4931778;29;20450;-80
2022/07/11 06:14:21;;;;;;;4.47;3.10;;;;;;;19.76;87.40;100334.31;4931738;29;20513;-79
2022/07/11 06:16:47;;;;;;;7.20;3.10;;;;;;;19.97;85.94;100350.00;4931551;29;20103;-82
2022/07/11 06:19:14;;;;;;;4.68;3.40;;;;;;;20.09;87.53;100358.69;4931407;29;20055;-80
2022/07/11 06:21:40;;;;;;;4.60;3.15;;;;;;;20.13;83.92;100349.94;4931574;29;20546;-81
2022/07/11 06:24:06;;;;;;;3.47;2.60;;;;;;;20.01;82.07;100343.00;4947381;29;20046;-81
2022/07/11 06:26:31;;;;;;;3.72;2.90;;;;;;;20.30;85.98;100368.19;4931675;29;20071;-81
2022/07/11 06:28:57;;;;;;;4.45;2.70;;;;;;;20.25;84.65;100343.75;4931493;29;20447;-81
2022/07/11 06:31:22;;;;;;;3.58;2.70;;;;;;;20.29;87.63;100333.25;4947644;28;20028;-81
2022/07/11 06:33:54;;;;;;;4.07;2.55;;;;;;;20.41;81.19;100350.69;4934054;29;20119;-81
2022/07/11 06:36:22;;;;;;;3.63;2.67;;;;;;;20.67;81.38;100370.63;4934378;29;20031;-81
2022/07/11 06:38:48;;;;;;;5.72;2.97;;;;;;;20.67;82.39;100375.88;4934028;29;20498;-81
2022/07/11 06:41:14;;;;;;;4.18;3.10;;;;;;;20.63;81.22;100361.03;4933061;29;20028;-81
2022/07/11 06:43:39;;;;;;;3.20;2.80;;;;;;;20.54;81.19;100354.09;4934129;29;20038;-80
2022/07/11 06:46:05;;;;;;;3.72;2.90;;;;;;;20.58;80.68;100363.69;4934257;29;20058;-81
2022/07/11 06:48:30;;;;;;;4.80;3.10;;;;;;;20.38;80.31;100319.22;4934275;29;20035;-81
2022/07/11 06:50:56;;;;;;;3.45;2.70;;;;;;;20.75;78.95;100355.75;4948763;29;20039;-81
2022/07/11 06:53:22;;;;;;;4.35;2.60;;;;;;;20.77;77.85;100348.75;4934220;29;20443;-80
2022/07/11 06:55:48;;;;;;;7.18;3.00;;;;;;;20.83;78.88;100356.53;4933818;29;20166;-77
2022/07/11 06:58:31;;;;;;;5.60;2.58;;;;;;;20.80;80.62;100332.97;4947285;28;20035;-81
2022/07/11 07:00:58;;;;;;;5.18;2.30;;;;;;;20.75;77.39;100302.41;4932305;29;20040;-81
2022/07/11 07:03:24;;;;;;;4.82;2.80;;;;;;;20.84;80.09;100308.44;4933698;29;20071;-81
2022/07/11 07:05:49;;;;;;;5.07;2.85;;;;;;;21.19;78.23;100355.44;4933935;29;20126;-81
2022/07/11 07:08:14;;;;;;;5.35;2.92;;;;;;;21.21;80.22;100348.38;4933784;29;20553;-81
2022/07/11 07:10:40;;;;;;;4.60;2.10;;;;;;;21.30;69.76;100349.19;4936958;29;20506;-81
2022/07/11 07:13:05;;;;;;;3.15;1.88;;;;;;;21.46;71.21;100349.03;4937605;29;20106;-81
2022/07/11 07:15:31;;;;;;;2.00;1.80;;;;;;;21.60;67.46;100372.56;4951891;28;20031;-80
2022/07/11 07:17:56;;;;;;;2.78;1.90;;;;;;;21.61;67.17;100358.56;4952094;29;20885;-81
2022/07/11 07:20:22;;;;;;;4.68;2.13;;;;;;;21.49;66.50;100322.72;4937298;29;20115;-80
2022/07/11 07:22:47;;;;;;;4.45;2.20;;;;;;;21.89;68.83;100376.66;4951950;28;20036;-81
2022/07/11 07:25:12;;;;;;;2.70;2.05;;;;;;;21.81;65.81;100364.44;4937395;29;20046;-80
2022/07/11 07:27:38;;;;;;;5.72;2.38;;;;;;;21.88;67.00;100374.91;4953636;29;20125;-80
2022/07/11 07:30:04;;;;;;;2.72;1.90;;;;;;;21.89;69.47;100358.25;4953453;28;20039;-81
2022/07/11 07:32:29;;;;;;;3.50;2.13;;;;;;;22.23;68.11;100357.81;4953744;28;20105;-81
2022/07/11 07:34:55;;;;;;;5.07;2.00;;;;;;;21.93;64.71;100310.88;4953583;29;20139;-81
2022/07/11 07:37:20;;;;;;;4.40;2.30;;;;;;;22.38;67.24;100373.44;4953480;29;20047;-82
2022/07/11 07:39:46;;;;;;;4.30;2.22;;;;;;;22.30;65.90;100365.59;4953420;28;20035;-80
2022/07/11 07:42:11;;;;;;;2.83;2.05;;;;;;;22.38;68.30;100356.78;4953245;28;20139;-80
2022/07/11 07:44:57;;;;;;;2.95;1.83;;;;;;;22.20;62.95;100297.41;4953046;29;20540;-79
2022/07/11 07:47:22;;;;;;;2.20;1.83;;;;;;;22.43;62.35;100363.72;4953282;29;20135;-80
2022/07/11 07:49:47;;;;;;;3.22;1.77;;;;;;;22.68;62.99;100376.53;4953120;28;20054;-81
2022/07/11 07:52:13;;;;;;;3.72;1.92;;;;;;;22.51;64.60;100341.72;4953262;29;20036;-80
2022/07/11 07:54:39;;;;;;;2.65;1.80;;;;;;;22.75;61.76;100359.78;4953319;29;20151;-81
2022/07/11 07:57:04;;;;;;;3.55;1.63;;;;;;;22.56;60.60;100309.16;4953085;29;20580;-81
2022/07/11 07:59:30;;;;;;;2.55;1.55;;;;;;;22.75;61.45;100346.63;4936638;29;20446;-81
2022/07/11 08:01:55;;;;;;;2.28;1.60;;;;;;;22.98;57.54;100361.16;4949988;29;20051;-81
2022/07/11 08:04:21;;;;;;;2.75;1.70;;;;;;;22.95;58.89;100353.31;4933754;29;20540;-81
2022/07/11 08:06:46;;;;;;;3.65;2.17;;;;;;;23.12;60.29;100368.84;4933911;29;20034;-81
2022/07/11 08:09:12;;;;;;;2.08;1.70;;;;;;;23.09;60.33;100368.88;4933871;29;20032;-83
2022/07/11 08:11:38;;;;;;;3.75;1.60;;;;;;;23.10;59.99;100376.78;4933594;29;20114;-83
2022/07/11 08:14:04;;;;;;;2.17;1.77;;;;;;;23.25;57.16;100346.69;4917830;29;20047;-83
2022/07/11 08:16:31;;;;;;;5.85;1.60;;;;;;;23.51;56.84;100358.50;4918805;29;20119;-84
2022/07/11 08:19:03;;;;;;;2.72;1.40;;;;;;;23.52;54.15;100360.25;4935071;29;20042;-81
2022/07/11 08:21:29;;;;;;;3.30;1.60;;;;;;;23.45;54.35;100352.50;4935558;29;20066;-82
2022/07/11 08:23:55;;;;;;;2.85;1.58;;;;;;;23.53;53.14;100366.41;4950720;28;20067;-80
2022/07/11 08:26:21;;;;;;;1.65;1.35;;;;;;;23.48;53.13;100357.69;4950696;29;20032;-81
2022/07/11 08:28:47;;;;;;;1.65;1.48;;;;;;;23.69;54.35;100357.31;4936139;29;20395;-82
2022/07/11 08:31:12;;;;;;;2.05;1.60;;;;;;;23.86;53.95;100374.56;4935975;29;20486;-82
2022/07/11 08:33:38;;;;;;;4.50;1.50;;;;;;;24.04;54.94;100373.38;4950699;29;20068;-81
2022/07/11 08:36:03;;;;;;;2.85;1.60;;;;;;;24.01;52.95;100370.78;4936105;29;20035;-82
2022/07/11 08:38:29;;;;;;;3.45;1.60;;;;;;;24.10;54.46;100360.06;4936389;29;20043;-82
2022/07/11 08:40:54;;;;;;;3.10;1.65;;;;;;;24.38;52.92;100368.22;4936074;29;20032;-82
2022/07/11 08:43:27;;;;;;;3.50;2.00;;;;;;;24.37;52.72;100333.97;4950283;29;20023;-80
2022/07/11 08:45:54;;;;;;;3.65;1.75;;;;;;;24.54;52.52;100338.88;4935907;29;20149;-81
2022/07/11 08:48:40;;;;;;;2.08;1.23;;;;;;;24.51;51.24;100334.53;4950340;29;20526;-81
2022/07/11 08:51:08;;;;;;;5.00;1.63;;;;;;;24.61;54.47;100348.38;4933034;29;20054;-80
2022/07/11 08:53:40;;;;;;;3.30;1.65;;;;;;;24.69;52.10;100346.44;4948752;28;20183;-79
2022/07/11 08:56:10;;;;;;;1.98;1.30;;;;;;;24.55;50.48;100348.53;4933293;29;20405;-80
2022/07/11 08:58:36;;;;;;;;;;;;;;;24.47;48.79;100361.88;4949366;28;20032;-81
2022/07/11 09:01:01;;;;;;;1.95;1.50;;;;;;;24.13;47.51;100309.88;4932946;29;19911;-81
2022/07/11 09:03:27;;;;;;;2.00;1.40;;;;;;;24.39;50.28;100348.88;4932784;29;20035;-81
2022/07/11 09:05:53;;;;;;;3.17;1.60;;;;;;;24.52;51.55;100338.03;4948433;28;20562;-81
2022/07/11 09:08:18;;;;;;;3.75;1.65;;;;;;;24.77;54.34;100348.91;4951519;28;20124;-81
2022/07/11 09:10:46;;;;;;;2.53;1.35;;;;;;;24.62;52.79;100280.63;4951975;28;20061;-81
2022/07/11 09:13:12;;;;;;;6.00;1.85;;;;;;;24.80;48.43;100345.31;4951608;28;20039;-81
2022/07/11 09:15:39;;;;;;;4.35;1.42;;;;;;;24.95;46.52;100344.97;4951632;28;20058;-81
2022/07/11 09:18:26;;;;;;;3.72;1.40;;;;;;;25.17;51.68;100332.09;4951734;28;20070;-81
2022/07/11 09:26:31;;;;;;;2.97;1.42;;;;;;;25.34;51.83;100328.13;4951815;29;20134;-81
2022/07/11 09:29:09;;;;;;;5.88;1.50;;;;;;;25.43;46.83;100327.91;4932052;29;20043;-81
2022/07/11 09:31:36;;;;;;;3.38;1.50;;;;;;;25.55;48.77;100321.44;4931342;29;20043;-81
2022/07/11 09:34:09;;;;;;;3.17;1.52;;;;;;;25.41;46.68;100321.81;4932128;29;20141;-81
2022/07/11 09:36:36;;;;;;;1.58;1.27;;;;;;;25.62;45.28;100328.28;4932108;29;20090;-82
2022/07/11 09:39:03;;;;;;;1.60;1.50;;;;;;;25.54;44.22;100284.47;4924863;29;20141;-83
2022/07/11 09:41:35;;;;;;;1.48;1.25;;;;;;;25.54;43.10;100245.69;4913329;29;20511;-84
2022/07/11 09:44:11;;;;;;;2.05;1.40;;;;;;;26.11;47.02;100319.88;4928902;29;20089;-83
2022/07/11 09:46:37;;;;;;;1.98;1.27;;;;;;;25.55;41.91;100214.84;4912868;29;20058;-83
2022/07/11 09:49:03;;;;;;;2.75;1.58;;;;;;;26.30;42.69;100326.31;4913127;29;20055;-84
2022/07/11 09:51:31;;;;;;;2.95;1.30;;;;;;;26.19;43.37;100272.00;4928764;29;20035;-84
2022/07/11 09:53:57;;;;;;;2.55;1.52;;;;;;;26.48;41.82;100319.59;4928787;29;20048;-84
2022/07/11 09:56:32;;;;;;;1.85;1.65;;;;;;;26.55;42.21;100311.47;4913019;29;20043;-83
2022/07/11 09:59:00;;;;;;;3.15;1.48;;;;;;;26.74;40.75;100295.88;4930618;29;20044;-85
2022/07/11 10:01:28;;;;;;;4.32;1.55;;;;;;;26.78;42.76;100282.47;4949059;29;20071;-84
2022/07/11 10:03:54;;;;;;;1.90;1.45;;;;;;;26.98;41.47;100290.66;4934423;29;20074;-82
2022/07/11 10:06:19;;;;;;;5.18;1.30;;;;;;;26.84;41.23;100264.66;4948742;29;20071;-84
2022/07/11 10:08:45;;;;;;;2.28;1.60;;;;;;;27.27;44.91;100290.50;4949019;29;20027;-82
2022/07/11 10:11:11;;;;;;;2.47;1.45;;;;;;;27.27;41.63;100287.84;4934112;29;20032;-82
2022/07/11 10:13:38;;;;;;;4.00;1.75;;;;;;;27.25;43.53;100304.72;4948914;28;20497;-83
2022/07/11 10:16:35;;;;;;;5.18;1.30;;;;;;;27.03;40.09;100281.66;4948740;29;20024;-83
2022/07/11 10:19:14;;;;;;;1.40;1.30;;;;;;;27.34;37.90;100308.84;4874933;29;20224;-83
2022/07/11 10:21:56;;;;;;;2.67;1.23;;;;;;;27.52;36.42;100296.75;4890516;29;20033;-85
2022/07/11 10:24:28;;;;;;;2.20;1.38;;;;;;;27.38;39.82;100299.88;4874950;29;20077;-82
2022/07/11 10:27:06;;;;;;;15.82;9.07;;;;;;;27.15;38.82;100316.59;4874830;29;20528;-85
2022/07/11 10:29:38;;;;;;;4.35;2.38;;;;;;;26.83;40.90;100276.16;4890322;29;20052;-86
2022/07/11 10:32:11;;;;;;;9.23;5.45;;;;;;;27.27;40.68;100271.09;4859433;29;20022;-85
2022/07/11 10:34:36;;;;;;;2.05;1.40;;;;;;;27.56;39.52;100291.28;4859274;29;20033;-84
2022/07/11 10:37:04;;;;;;;2.60;1.20;;;;;;;28.03;39.62;100302.81;4874714;29;20045;-84
2022/07/11 10:39:34;;;;;;;1.23;1.13;;;;;;;27.88;37.87;100310.44;4859232;29;20207;-84
2022/07/11 10:42:02;;;;;;;1.52;1.27;;;;;;;27.65;35.42;100300.66;4875382;29;20557;-88
2022/07/11 10:44:46;;;;;;;1.77;1.40;;;;;;;27.79;36.52;100313.44;4892754;29;20048;-89
2022/07/11 10:47:37;;;;;;;1.80;1.25;;;;;;;27.87;36.94;100315.81;4893492;29;20477;-89
2022/07/11 10:50:13;;;;;;;2.05;1.30;;;;;;;27.56;36.05;100282.47;4893143;29;20108;-90
2022/07/11 10:52:41;;;;;;;4.85;1.58;;;;;;;27.60;36.79;100313.25;4889687;29;20064;-87
2022/07/11 10:55:46;;;;;;;1.30;1.20;;;;;;;27.24;37.72;100322.44;4907104;29;20047;-85
2022/07/11 10:58:32;;;;;;;4.75;2.70;;;;;;;27.36;37.38;100285.81;4930980;29;20127;-85
2022/07/11 11:01:11;;;;;;;1.13;1.00;;;;;;;27.60;35.82;100322.06;4931016;29;20036;-86
2022/07/11 11:03:42;;;;;;;5.38;1.52;;;;;;;27.56;36.19;100315.13;4946970;29;20602;-85
2022/07/11 11:06:08;;;;;;;1.92;1.30;;;;;;;27.80;36.43;100280.66;4930910;29;20038;-88
2022/07/11 11:08:37;;;;;;;2.90;1.10;;;;;;;27.70;33.24;100266.03;4946948;28;20059;-85
2022/07/11 11:11:08;;;;;;;1.73;1.13;;;;;;;28.01;36.88;100307.31;4930980;29;20126;-87
2022/07/11 11:13:36;;;;;;;2.08;1.27;;;;;;;28.04;31.83;100309.91;4946978;29;20042;-87
2022/07/11 11:16:17;;;;;;;1.38;1.25;;;;;;;28.09;35.37;100308.78;4932025;29;20415;-89
2022/07/11 11:18:43;;;;;;;3.50;1.23;;;;;;;27.76;34.69;100266.69;4932455;29;20106;-89
2022/07/11 11:21:09;;;;;;;1.90;1.65;;;;;;;27.94;35.48;100304.03;4932233;29;20143;-88
2022/07/11 11:24:05;;;;;;;4.00;1.30;;;;;;;27.93;35.76;100312.91;4948170;29;20035;-90
2022/07/11 11:27:01;;;;;;;2.80;0.93;;;;;;;27.90;34.24;100260.84;4874454;29;20049;-89
2022/07/11 11:29:29;;;;;;;3.80;1.50;;;;;;;28.37;39.14;100304.19;4837588;29;20049;-88